Larnaca Airport, Cyprus

6:12 PM EET on December 06, 2016 (GMT +0200)
Larnaca International | | Change Station

Elev 7 ft 34.87 °N, 33.62 °E | Updated 12 minutes ago

Partly Cloudy
Partly Cloudy
61 °F
Feels Like 61 °F
N
8
Wind Variable Wind from NE

Today
High -- | Low -- °F
--% Chance of Precip.
Yesterday
High -- | Low -- °F
Precip. -- in
Pressure 30.24 in
Visibility 6.2 miles
Clouds Few 3000 ft
Dew Point 43 °F
Humidity 52%
Rainfall 0.00 in
Snow Depth Not available.
6:39 AM 4:33 PM
Waxing Crescent, 43% visible
METAR LCLK 061600Z 05007KT 9999 FEW030 16/06 Q1024 NOSIG
Pressure 30.24 in
Visibility 6.2 miles
Clouds Few 3000 ft
Dew Point 43 °F
Humidity 52%
Rainfall 0.00 in
Snow Depth Not available.
6:39 AM 4:33 PM
Waxing Crescent, 43% visible
METAR LCLK 061600Z 05007KT 9999 FEW030 16/06 Q1024 NOSIG

10-Day Weather Forecast

×

Almanac

Astronomy

Dec. 06, 2016 Rise Set
Actual Time
Civil Twilight
Nautical Twilight
Astronomical Twilight
Moon
Length of Visible Light
Length of Day
Tomorrow will be .
, % of the Moon is Illuminated

Today's Extremes

Country Highs Country Lows

Community

WunderPhotos

Upload Photos

1,955,969 photos uploaded!

WunderBlog® & News

Nearby

Air Quality

  Air Quality AQ Index Pollutant
Not available.

Snow Depth

Station Depth Elevation

Earthquake Activity

City Distance Mag. Time & Date
Minimum magnitude displayed is 2.5.

Coastal Water Temperatures

Place Temperature

Stations

Nearby Weather Stations

Station Location Temp. Windchill Dew Point Humidity Wind Precip. Elev Updated Type